Archival Weather

Chicago O'Hare International

Chicago, Illinois (KORD)

Report from: Thursday, November 24, 2022 1:51 PM CST
Current time: Sunday, December 4, 2022 6:42 AM CST

Current weather
Weather history
Weather forecast

Temperature11.7°C (53.1°F)
Dew point5.0°C (41.0°F)
Winds 10 kts (5.1 m/s, 11.5 mph) Southwest (220°)
Visibility10 mi. (16.1 km)
Clouds Ceiling: Broken clouds 3,400 ft. (1,036 m)
Broken clouds 4,500 ft. (1,372 m)
Overcast 25,000 ft. (7,620 m)
Altimeter30.03 in.Hg (1017 mB)
Relative humidity63 %
Density altitude-390 ft. (-119 m)
Sea-level pressure101.7 kPa (1017 mB, 30.04 in.Hg)
Remarks System requires maintenance
Automated weather observing station with precipitation discriminator
Flight conditions Visual Meteorological Conditions
Raw dataKORD 241951Z 22010KT 10SM BKN034 BKN045 OVC250 12/05 A3003 RMK AO2 SLP173 T01170050 $
An error has occurred. This application may no longer respond until reloaded. Reload 🗙